Time;durP1;ratioP1;P1;durP2;ratioP2;P2;SDS_P1;SDS_P2;PMS_P1;PMS_P2;Temp;Humidity;BMP_temperature;BMP_pressure;BME280_temperature;BME280_humidity;BME280_pressure;Samples;Min_cycle;Max_cycle;Signal;HPM_P1;HPM_P2
2022/01/18 00:01:19;;;;;;;39.45;15.15;;;6.20;92.70;;;;;;6247152;28;20049;-79
2022/01/18 00:04:23;;;;;;;34.08;15.23;;;6.20;92.80;;;;;;6247480;28;20088;-80
2022/01/18 00:07:25;;;;;;;35.40;14.63;;;6.20;92.80;;;;;;6249211;28;20102;-79
2022/01/18 00:10:29;;;;;;;40.05;14.52;;;6.20;92.80;;;;;;6252151;28;20053;-79
2022/01/18 00:13:40;;;;;;;34.47;13.65;;;6.30;92.90;;;;;;6251548;28;20053;-79
2022/01/18 00:17:01;;;;;;;32.25;13.00;;;6.30;92.80;;;;;;6251245;28;20057;-80
2022/01/18 00:20:05;;;;;;;44.42;14.98;;;6.30;92.80;;;;;;6252661;28;20053;-79
2022/01/18 00:23:08;;;;;;;39.72;14.55;;;6.30;92.70;;;;;;6251068;28;20418;-79
2022/01/18 00:26:11;;;;;;;29.95;13.10;;;6.30;92.80;;;;;;6251069;28;20045;-80
2022/01/18 00:29:16;;;;;;;34.35;14.48;;;6.30;92.80;;;;;;6251678;28;20053;-80
2022/01/18 00:32:27;;;;;;;36.67;14.68;;;6.40;92.60;;;;;;6252093;28;20136;-80
2022/01/18 00:35:33;;;;;;;35.45;14.10;;;6.40;92.50;;;;;;6250648;28;20522;-79
2022/01/18 00:38:45;;;;;;;36.97;14.27;;;6.40;92.50;;;;;;6251209;28;20049;-79
2022/01/18 00:41:47;;;;;;;34.30;13.00;;;6.50;92.50;;;;;;6251360;28;20045;-79
2022/01/18 00:44:49;;;;;;;43.55;16.15;;;6.60;92.40;;;;;;6250295;28;20057;-79
2022/01/18 00:47:52;;;;;;;35.80;14.85;;;6.60;92.30;;;;;;6251218;28;20144;-80
2022/01/18 00:50:56;;;;;;;32.05;13.63;;;6.50;92.30;;;;;;6251119;28;20049;-79
2022/01/18 00:53:59;;;;;;;29.48;12.43;;;6.50;92.30;;;;;;6250352;28;20069;-79
2022/01/18 00:57:01;;;;;;;31.95;13.57;;;6.60;92.60;;;;;;6250781;28;20046;-80
2022/01/18 01:00:04;;;;;;;38.75;14.82;;;6.60;92.20;;;;;;6250832;28;20058;-78
2022/01/18 01:03:06;;;;;;;41.28;13.88;;;6.60;92.20;;;;;;6248962;28;20045;-78
2022/01/18 01:06:09;;;;;;;39.45;14.73;;;6.60;92.20;;;;;;6249132;28;20418;-78
2022/01/18 01:09:11;;;;;;;35.17;13.65;;;6.50;92.20;;;;;;6249479;28;20472;-79
2022/01/18 01:12:14;;;;;;;29.27;12.70;;;6.50;92.30;;;;;;6250712;28;20041;-78
2022/01/18 01:15:17;;;;;;;32.35;12.13;;;6.60;92.30;;;;;;6249307;28;20491;-80
2022/01/18 01:18:35;;;;;;;36.70;14.88;;;6.60;92.20;;;;;;6249906;28;20059;-79
2022/01/18 01:35:04;;;;;;;34.15;13.30;;;6.60;92.10;;;;;;6248696;28;20049;-78
2022/01/18 01:44:58;;;;;;;31.83;12.95;;;6.60;92.10;;;;;;6192407;28;20044;-78
2022/01/18 01:48:00;;;;;;;28.25;12.35;;;6.70;91.90;;;;;;6224695;28;20085;-79
2022/01/18 01:51:04;;;;;;;31.40;11.98;;;6.70;91.90;;;;;;6224911;28;20045;-79
2022/01/18 01:54:11;;;;;;;36.95;13.63;;;6.70;91.80;;;;;;6224492;28;20049;-79
2022/01/18 01:57:12;;;;;;;30.25;12.63;;;6.70;91.90;;;;;;6223656;28;20417;-78
2022/01/18 02:00:17;;;;;;;27.42;11.70;;;6.80;91.80;;;;;;6224315;28;20419;-79
2022/01/18 02:03:20;;;;;;;27.05;12.43;;;6.80;91.70;;;;;;6223433;28;20570;-79
2022/01/18 02:06:23;;;;;;;26.95;12.40;;;6.80;91.80;;;;;;6223413;28;20418;-78
2022/01/18 02:09:26;;;;;;;27.65;11.65;;;6.90;92.00;;;;;;6224429;28;20450;-80
2022/01/18 02:12:30;;;;;;;32.17;11.90;;;6.90;91.70;;;;;;6224545;28;20052;-79
2022/01/18 02:15:37;;;;;;;30.05;12.13;;;6.90;91.60;;;;;;6223514;28;20057;-79
2022/01/18 02:21:59;;;;;;;25.17;11.88;;;7.00;91.60;;;;;;6224036;28;20037;-79
2022/01/18 02:25:01;;;;;;;31.17;12.27;;;7.00;91.40;;;;;;6224356;28;20042;-79
2022/01/18 02:28:03;;;;;;;28.08;10.63;;;6.90;91.40;;;;;;6224758;28;20068;-79
2022/01/18 02:31:05;;;;;;;28.63;11.43;;;7.00;91.40;;;;;;6223572;28;20050;-79
2022/01/18 02:34:09;;;;;;;26.67;10.98;;;7.00;91.40;;;;;;6223839;28;20045;-80
2022/01/18 02:37:14;;;;;;;26.73;10.88;;;7.00;91.30;;;;;;6224033;28;20517;-79
2022/01/18 02:40:16;;;;;;;26.60;11.15;;;7.00;91.40;;;;;;6224984;28;20050;-79
2022/01/18 02:46:38;;;;;;;23.95;10.02;;;7.10;91.10;;;;;;6223303;28;20045;-79
2022/01/18 02:49:40;;;;;;;28.75;12.40;;;7.10;91.00;;;;;;6223534;28;20077;-79
2022/01/18 02:52:43;;;;;;;27.85;10.48;;;7.10;91.10;;;;;;6222783;28;20050;-79
2022/01/18 02:55:50;;;;;;;29.27;10.27;;;7.10;91.00;;;;;;6223521;28;20420;-79
2022/01/18 02:58:58;;;;;;;25.08;10.65;;;7.10;91.00;;;;;;6223571;28;20123;-79
2022/01/18 03:05:24;;;;;;;22.02;10.18;;;7.20;91.10;;;;;;6167220;28;20073;-79
2022/01/18 03:08:28;;;;;;;19.73;10.52;;;7.30;91.00;;;;;;6223744;28;20054;-79
2022/01/18 03:11:30;;;;;;;29.08;10.13;;;7.30;90.90;;;;;;6222995;28;20069;-79
2022/01/18 03:14:32;;;;;;;22.35;9.52;;;7.40;90.80;;;;;;6222901;28;20050;-79
2022/01/18 03:17:34;;;;;;;23.38;10.27;;;7.30;90.70;;;;;;6222857;28;20522;-79
2022/01/18 03:20:36;;;;;;;21.23;9.45;;;7.30;90.70;;;;;;6223102;28;20050;-79
2022/01/18 03:23:40;;;;;;;25.65;10.93;;;7.20;90.70;;;;;;6237355;28;20162;-79
2022/01/18 03:30:03;;;;;;;20.58;9.43;;;7.00;91.00;;;;;;6228371;28;20504;-82
2022/01/18 03:33:11;;;;;;;23.55;10.65;;;7.00;91.20;;;;;;6228320;28;20042;-81
2022/01/18 03:36:13;;;;;;;21.88;10.02;;;7.00;91.20;;;;;;6228804;28;20046;-82
2022/01/18 03:39:16;;;;;;;19.58;9.18;;;7.00;91.10;;;;;;6228780;28;20046;-82
2022/01/18 03:45:41;;;;;;;22.45;10.88;;;7.20;91.00;;;;;;6232958;28;20120;-81
2022/01/18 03:48:49;;;;;;;27.95;11.48;;;7.20;90.90;;;;;;6232487;28;20050;-82
2022/01/18 03:51:51;;;;;;;28.58;11.35;;;7.20;90.90;;;;;;6232367;28;20404;-81
2022/01/18 03:54:55;;;;;;;26.23;11.15;;;7.20;90.90;;;;;;6232489;28;20056;-82
2022/01/18 03:57:57;;;;;;;22.73;11.07;;;7.20;90.90;;;;;;6231940;28;20053;-82
2022/01/18 04:00:59;;;;;;;22.23;10.40;;;7.20;90.80;;;;;;6231375;28;20073;-82
2022/01/18 04:04:00;;;;;;;23.35;9.82;;;7.20;90.80;;;;;;6231672;28;20403;-82
2022/01/18 04:07:02;;;;;;;19.67;8.43;;;7.30;90.80;;;;;;6234898;28;20049;-82
2022/01/18 04:10:08;;;;;;;22.58;10.55;;;7.30;90.70;;;;;;6236341;28;20041;-81
2022/01/18 04:13:09;;;;;;;23.25;9.73;;;7.40;90.70;;;;;;6236706;28;20129;-81
2022/01/18 04:16:11;;;;;;;24.13;10.38;;;7.40;90.50;;;;;;6231496;28;20058;-82
2022/01/18 04:25:46;;;;;;;20.55;9.10;;;7.40;90.50;;;;;;6230590;28;20123;-82
2022/01/18 04:26:52;;;;;;;19.02;8.55;;;7.40;90.40;;;;;;6229889;28;20041;-81
2022/01/18 04:29:26;;;;;;;25.95;9.25;;;7.40;90.40;;;;;;6228957;28;20512;-81
2022/01/18 04:32:28;;;;;;;23.63;10.00;;;7.30;90.50;;;;;;6230261;28;20060;-82
2022/01/18 04:35:30;;;;;;;22.27;10.88;;;7.40;90.60;;;;;;6228593;28;20045;-82
2022/01/18 04:38:32;;;;;;;27.60;11.25;;;7.40;90.90;;;;;;6228833;28;20068;-81
2022/01/18 04:41:35;;;;;;;28.25;11.90;;;7.40;90.60;;;;;;6229608;28;20046;-81
2022/01/18 04:51:18;;;;;;;22.60;10.98;;;7.50;90.50;;;;;;6229627;28;20042;-81
2022/01/18 04:54:20;;;;;;;22.95;10.45;;;7.40;90.30;;;;;;6228997;28;20057;-81
2022/01/18 05:00:42;;;;;;;23.38;11.15;;;7.30;90.50;;;;;;6229208;28;20423;-81
2022/01/18 05:03:44;;;;;;;24.42;11.00;;;7.30;90.50;;;;;;6228967;28;20056;-80
2022/01/18 05:06:46;;;;;;;25.75;10.63;;;7.30;90.50;;;;;;6228069;28;20127;-81
2022/01/18 05:09:50;;;;;;;19.73;10.90;;;7.30;90.50;;;;;;6228592;28;20054;-81
2022/01/18 05:12:55;;;;;;;23.10;11.10;;;7.30;90.50;;;;;;6228130;28;20496;-81
2022/01/18 05:16:06;;;;;;;29.25;9.90;;;7.30;90.40;;;;;;6228965;28;20061;-81
2022/01/18 05:19:15;;;;;;;21.45;9.50;;;7.30;90.40;;;;;;6227828;28;20574;-81
2022/01/18 05:25:37;;;;;;;26.70;10.02;;;7.30;90.40;;;;;;6227892;28;20057;-83
2022/01/18 05:28:40;;;;;;;22.33;9.93;;;7.20;90.50;;;;;;6227660;28;20500;-81
2022/01/18 05:31:42;;;;;;;26.70;10.90;;;7.20;90.60;;;;;;6227895;28;20129;-81
2022/01/18 05:34:48;;;;;;;20.58;10.43;;;7.20;90.60;;;;;;6227698;28;20045;-80
2022/01/18 05:37:50;;;;;;;22.73;10.15;;;7.20;90.70;;;;;;6228164;28;20045;-80
2022/01/18 05:40:52;;;;;;;23.27;10.25;;;7.20;90.60;;;;;;6227996;28;20070;-80
2022/01/18 05:43:55;;;;;;;27.20;9.25;;;7.20;90.60;;;;;;6228353;28;20053;-81
2022/01/18 05:46:57;;;;;;;23.23;10.32;;;7.20;90.50;;;;;;6227677;28;20046;-80
2022/01/18 05:49:59;;;;;;;21.85;10.48;;;7.10;90.50;;;;;;6228290;28;20054;-80
2022/01/18 05:53:01;;;;;;;32.25;11.32;;;7.10;90.50;;;;;;6228337;28;20041;-80
2022/01/18 05:56:03;;;;;;;26.02;10.80;;;7.00;90.60;;;;;;6227672;28;20054;-80
2022/01/18 05:59:06;;;;;;;17.70;9.63;;;6.80;90.70;;;;;;6228705;28;20063;-81
2022/01/18 06:02:16;;;;;;;25.83;12.45;;;6.70;90.80;;;;;;6227941;28;20070;-80
2022/01/18 06:08:37;;;;;;;26.67;10.75;;;6.70;90.80;;;;;;6228882;28;20136;-81
2022/01/18 06:11:40;;;;;;;25.70;10.48;;;6.70;91.00;;;;;;6228466;28;20065;-81
2022/01/18 06:14:45;;;;;;;23.40;10.52;;;6.60;91.20;;;;;;6227623;28;20049;-80
2022/01/18 06:17:47;;;;;;;25.38;9.63;;;6.60;91.20;;;;;;6228256;28;20042;-81
2022/01/18 06:20:49;;;;;;;25.05;10.00;;;6.70;91.10;;;;;;6227259;28;20050;-81
2022/01/18 06:23:50;;;;;;;28.75;10.20;;;6.70;91.00;;;;;;6228050;28;20132;-81
2022/01/18 06:26:52;;;;;;;29.73;9.02;;;6.60;90.90;;;;;;6226531;28;20096;-81
2022/01/18 06:29:55;;;;;;;21.40;9.05;;;6.60;91.00;;;;;;6226834;28;20078;-82
2022/01/18 06:32:57;;;;;;;23.15;8.90;;;6.70;91.00;;;;;;6227950;28;20046;-79
2022/01/18 06:35:59;;;;;;;25.67;8.60;;;6.70;90.90;;;;;;6228232;28;20056;-80
2022/01/18 06:39:01;;;;;;;20.83;8.73;;;6.70;90.90;;;;;;6227604;28;20517;-80
2022/01/18 06:42:03;;;;;;;19.85;8.77;;;6.70;90.80;;;;;;6228051;28;20046;-80
2022/01/18 06:45:07;;;;;;;21.80;9.23;;;6.70;90.80;;;;;;6226880;28;20142;-80
2022/01/18 06:48:09;;;;;;;21.17;9.98;;;6.70;90.80;;;;;;6229816;23;20046;-78
2022/01/18 06:51:11;;;;;;;17.88;8.32;;;6.70;90.90;;;;;;6202556;28;20054;-79
2022/01/18 06:54:16;;;;;;;21.38;9.38;;;6.70;90.90;;;;;;6202887;28;20060;-79
2022/01/18 06:57:18;;;;;;;22.27;9.05;;;6.60;90.80;;;;;;6202999;28;20050;-79
2022/01/18 07:00:21;;;;;;;26.27;9.90;;;6.60;90.90;;;;;;6203159;28;20609;-80
2022/01/18 07:03:23;;;;;;;23.08;9.27;;;6.60;90.90;;;;;;6202215;28;20053;-79
2022/01/18 07:06:24;;;;;;;22.58;10.40;;;6.60;90.90;;;;;;6221107;28;20045;-80
2022/01/18 07:09:26;;;;;;;27.17;8.68;;;6.60;91.00;;;;;;6238630;28;20048;-78
2022/01/18 07:12:32;;;;;;;22.95;9.82;;;6.60;91.00;;;;;;6227600;28;20064;-80
2022/01/18 07:15:36;;;;;;;29.67;10.43;;;6.70;91.00;;;;;;6226502;28;20057;-79
2022/01/18 07:18:37;;;;;;;21.35;8.77;;;6.70;90.90;;;;;;6227549;28;20432;-79
2022/01/18 07:21:39;;;;;;;23.58;9.23;;;6.70;90.90;;;;;;6226705;28;20426;-78
2022/01/18 07:24:43;;;;;;;27.38;10.20;;;6.70;90.80;;;;;;6225878;28;20046;-80
2022/01/18 07:27:45;;;;;;;20.92;8.35;;;6.80;90.90;;;;;;6226731;28;20046;-78
2022/01/18 07:30:50;;;;;;;18.02;8.88;;;6.70;91.10;;;;;;6226427;28;20053;-77
2022/01/18 07:33:51;;;;;;;19.70;10.25;;;6.80;90.80;;;;;;6226908;28;20049;-80
2022/01/18 07:36:53;;;;;;;31.48;10.32;;;6.80;90.80;;;;;;6226174;28;20062;-77
2022/01/18 07:39:55;;;;;;;24.40;9.95;;;6.80;90.80;;;;;;6227102;28;20046;-78
2022/01/18 07:43:00;;;;;;;23.65;11.30;;;6.80;90.80;;;;;;6226143;28;20042;-79
2022/01/18 07:46:03;;;;;;;31.65;12.07;;;6.80;90.70;;;;;;6225704;28;20056;-80
2022/01/18 07:49:05;;;;;;;26.70;10.07;;;6.90;90.80;;;;;;6227858;28;20105;-79
2022/01/18 07:52:07;;;;;;;31.42;10.20;;;6.80;90.70;;;;;;6228189;28;20112;-80
2022/01/18 07:55:10;;;;;;;22.48;11.20;;;6.80;90.90;;;;;;6226869;28;20458;-80
2022/01/18 07:58:11;;;;;;;25.75;10.82;;;6.90;90.90;;;;;;6226855;28;20107;-79
2022/01/18 08:01:14;;;;;;;25.48;12.00;;;6.90;90.90;;;;;;6228112;28;20045;-79
2022/01/18 08:04:16;;;;;;;30.48;11.60;;;7.00;90.80;;;;;;6226824;28;20050;-80
2022/01/18 08:07:18;;;;;;;27.25;9.65;;;7.10;90.70;;;;;;6225797;28;20046;-80
2022/01/18 08:10:20;;;;;;;18.75;8.88;;;7.10;90.50;;;;;;6225633;28;20046;-80
2022/01/18 08:13:26;;;;;;;27.00;9.77;;;7.10;90.90;;;;;;6226958;28;20054;-79
2022/01/18 08:16:48;;;;;;;24.55;11.25;;;7.10;90.70;;;;;;6229064;28;20050;-79
2022/01/18 08:19:50;;;;;;;26.88;10.63;;;7.20;90.70;;;;;;6259101;28;20097;-79
2022/01/18 08:22:51;;;;;;;26.08;10.88;;;7.30;90.60;;;;;;6254527;28;20041;-80
2022/01/18 08:25:53;;;;;;;28.55;12.85;;;7.30;90.50;;;;;;6252300;28;20052;-79
2022/01/18 08:28:55;;;;;;;27.02;10.90;;;7.40;90.50;;;;;;6253694;28;20049;-80
2022/01/18 08:31:58;;;;;;;30.73;10.85;;;7.40;90.50;;;;;;6254620;28;20049;-80
2022/01/18 08:35:00;;;;;;;28.15;11.48;;;7.40;90.50;;;;;;6254023;28;20041;-79
2022/01/18 08:38:02;;;;;;;25.38;11.95;;;7.50;90.50;;;;;;6253816;28;20045;-79
2022/01/18 08:41:05;;;;;;;42.35;13.00;;;7.60;90.60;;;;;;6254688;28;20045;-80
2022/01/18 08:44:07;;;;;;;27.42;12.23;;;7.70;90.40;;;;;;6254382;28;20414;-80
2022/01/18 08:47:10;;;;;;;27.38;12.32;;;7.80;90.30;;;;;;6252535;28;20494;-78
2022/01/18 08:50:12;;;;;;;29.30;12.40;;;7.90;90.10;;;;;;6202407;28;20046;-79
2022/01/18 08:53:14;;;;;;;27.35;12.38;;;8.00;90.10;;;;;;6266725;28;20041;-78
2022/01/18 08:56:16;;;;;;;37.90;13.60;;;8.10;90.10;;;;;;6265464;28;20053;-78
2022/01/18 08:59:18;;;;;;;32.33;13.77;;;8.20;90.30;;;;;;6255552;28;20122;-79
2022/01/18 09:02:21;;;;;;;30.77;13.10;;;8.30;89.40;;;;;;6255785;28;20045;-79
2022/01/18 09:05:24;;;;;;;36.25;14.90;;;8.30;89.60;;;;;;6256608;28;20057;-78
2022/01/18 09:08:26;;;;;;;34.95;14.40;;;8.40;89.30;;;;;;6250791;28;20450;-78
2022/01/18 09:11:30;;;;;;;32.08;14.07;;;8.40;87.70;;;;;;6250095;28;20139;-78
2022/01/18 09:14:32;;;;;;;29.50;12.48;;;8.40;88.40;;;;;;6250875;28;20053;-79
2022/01/18 09:17:37;;;;;;;35.60;14.00;;;8.40;88.80;;;;;;6251277;28;20802;-78
2022/01/18 09:20:39;;;;;;;33.35;14.82;;;8.50;88.50;;;;;;6255271;28;20053;-79
2022/01/18 09:23:42;;;;;;;30.75;13.77;;;8.70;88.40;;;;;;6235567;28;20051;-78
2022/01/18 09:26:44;;;;;;;31.17;14.20;;;8.90;87.00;;;;;;6259367;28;20510;-78
2022/01/18 09:29:46;;;;;;;25.90;13.63;;;9.00;87.00;;;;;;6247521;28;20514;-78
2022/01/18 09:32:49;;;;;;;37.03;19.65;;;9.10;86.80;;;;;;6246025;28;20053;-79
2022/01/18 09:35:51;;;;;;;27.25;14.57;;;9.30;86.80;;;;;;6251200;28;20119;-78
2022/01/18 09:38:53;;;;;;;25.58;13.20;;;9.40;85.80;;;;;;6266757;28;20045;-78
2022/01/18 09:41:58;;;;;;;27.58;13.20;;;9.50;85.40;;;;;;6276489;28;20059;-79
2022/01/18 09:45:00;;;;;;;31.30;13.82;;;9.70;85.20;;;;;;6256127;28;20053;-78
2022/01/18 09:48:04;;;;;;;33.03;12.55;;;9.90;84.10;;;;;;6235239;28;20053;-79
2022/01/18 09:51:06;;;;;;;26.83;13.98;;;10.10;82.60;;;;;;6249078;28;20126;-78
2022/01/18 09:54:08;;;;;;;25.88;11.82;;;10.20;82.00;;;;;;6276718;28;20530;-78
2022/01/18 09:57:10;;;;;;;26.83;12.52;;;10.40;82.00;;;;;;6277034;28;20171;-77
2022/01/18 10:00:12;;;;;;;28.70;13.45;;;10.70;82.00;;;;;;6278070;28;20052;-79
2022/01/18 10:03:31;;;;;;;26.75;12.57;;;11.00;80.50;;;;;;6275737;28;20183;-76
2022/01/18 10:06:34;;;;;;;;;;;11.10;78.00;;;;;;6278217;28;20047;-80
2022/01/18 10:09:36;;;;;;;25.33;13.73;;;10.90;77.70;;;;;;6276898;28;19991;-79
2022/01/18 10:12:38;;;;;;;25.40;13.45;;;10.90;78.80;;;;;;6276492;28;20123;-77
2022/01/18 10:15:40;;;;;;;25.67;11.80;;;11.10;78.50;;;;;;6276372;28;20051;-78
2022/01/18 10:18:47;;;;;;;26.35;11.07;;;11.00;77.30;;;;;;6277811;28;20127;-78
2022/01/18 10:21:50;;;;;;;16.73;9.23;;;10.90;77.80;;;;;;6264990;28;20510;-78
2022/01/18 10:24:53;;;;;;;24.33;9.93;;;10.70;77.70;;;;;;6274776;28;20541;-80
2022/01/18 10:27:56;;;;;;;18.42;8.88;;;10.60;77.40;;;;;;6275189;28;20060;-79
2022/01/18 10:31:01;;;;;;;23.05;9.50;;;10.70;77.00;;;;;;6259265;28;20522;-80
2022/01/18 10:34:41;;;;;;;24.25;10.02;;;10.60;77.80;;;;;;6239476;28;20120;-79
2022/01/18 10:37:43;;;;;;;21.67;9.65;;;10.70;77.00;;;;;;6250430;28;20054;-79
2022/01/18 10:40:45;;;;;;;19.90;9.38;;;10.70;76.90;;;;;;6251559;28;20057;-79
2022/01/18 10:44:03;;;;;;;18.33;8.80;;;10.70;76.70;;;;;;6251814;28;20151;-79
2022/01/18 10:47:05;;;;;;;26.02;10.48;;;10.70;76.80;;;;;;6249059;28;20045;-79
2022/01/18 10:50:12;;;;;;;19.02;9.57;;;10.90;76.10;;;;;;6252139;28;20054;-79
2022/01/18 10:53:15;;;;;;;23.92;9.82;;;10.90;76.40;;;;;;6256105;28;20045;-78
2022/01/18 10:56:17;;;;;;;16.27;7.78;;;11.00;76.60;;;;;;6249627;28;20051;-78
2022/01/18 10:59:22;;;;;;;19.45;7.25;;;11.00;74.50;;;;;;6269468;28;20045;-78
2022/01/18 11:02:24;;;;;;;17.60;7.07;;;10.90;74.10;;;;;;6274887;28;20128;-78
2022/01/18 11:05:29;;;;;;;16.10;7.72;;;10.80;74.50;;;;;;6274645;28;20048;-80
2022/01/18 11:08:31;;;;;;;15.15;6.93;;;10.70;74.50;;;;;;6275204;28;20466;-79
2022/01/18 11:11:33;;;;;;;16.23;8.02;;;10.80;75.00;;;;;;6275051;28;20395;-78
2022/01/18 11:14:37;;;;;;;17.48;5.65;;;10.90;75.10;;;;;;6274091;28;20037;-78
2022/01/18 11:17:40;;;;;;;20.42;7.00;;;11.10;74.20;;;;;;6275673;28;20574;-78
2022/01/18 11:20:45;;;;;;;20.13;5.90;;;11.00;73.70;;;;;;6268166;28;20392;-78
2022/01/18 11:23:48;;;;;;;12.80;5.35;;;11.10;74.00;;;;;;6259221;28;20414;-78
2022/01/18 11:26:51;;;;;;;11.30;5.68;;;11.10;72.70;;;;;;6248975;28;20041;-79
2022/01/18 11:29:52;;;;;;;9.77;4.68;;;11.20;72.00;;;;;;6251916;28;20045;-80
2022/01/18 11:32:56;;;;;;;13.90;5.47;;;11.20;71.50;;;;;;6245079;28;20124;-79
2022/01/18 11:36:04;;;;;;;13.32;4.38;;;11.20;71.70;;;;;;6247448;28;20133;-79
2022/01/18 11:39:07;;;;;;;;;;;11.10;71.60;;;;;;6249824;28;20053;-79
2022/01/18 11:42:11;;;;;;;10.80;4.28;;;11.30;71.10;;;;;;6248988;28;19928;-80
2022/01/18 11:45:33;;;;;;;9.32;3.45;;;11.30;71.10;;;;;;6238096;28;20579;-82
2022/01/18 11:48:45;;;;;;;7.22;3.20;;;11.60;70.50;;;;;;6226230;28;20054;-78
2022/01/18 11:51:53;;;;;;;8.25;3.53;;;11.80;68.50;;;;;;6247319;28;20171;-79
2022/01/18 11:54:58;;;;;;;;;;;11.60;68.10;;;;;;6272729;28;20178;-79
2022/01/18 11:58:11;;;;;;;10.70;3.47;;;11.40;68.40;;;;;;6274719;28;19924;-79
2022/01/18 12:01:13;;;;;;;9.90;3.65;;;11.20;69.20;;;;;;6223225;28;20054;-78
2022/01/18 12:04:17;;;;;;;11.38;4.15;;;11.20;69.80;;;;;;6227700;28;20227;-79
2022/01/18 12:07:54;;;;;;;7.65;3.55;;;11.30;69.40;;;;;;6228106;28;20045;-79
2022/01/18 12:10:56;;;;;;;5.75;1.73;;;11.30;69.20;;;;;;6252113;28;20123;-81
2022/01/18 12:13:59;;;;;;;9.55;2.03;;;11.30;68.10;;;;;;6251587;28;20124;-79
2022/01/18 12:17:13;;;;;;;3.15;1.77;;;11.40;68.20;;;;;;6252614;28;20049;-78
2022/01/18 12:20:46;;;;;;;6.07;1.85;;;11.50;66.10;;;;;;6258821;28;20137;-79
2022/01/18 12:23:50;;;;;;;5.57;2.08;;;11.50;64.70;;;;;;6270926;28;20099;-78
2022/01/18 12:27:01;;;;;;;8.80;2.00;;;11.50;66.10;;;;;;6279754;28;20053;-78
2022/01/18 12:30:26;;;;;;;13.93;4.82;;;11.50;66.90;;;;;;6280115;28;20529;-77
2022/01/18 12:33:28;;;;;;;8.40;2.10;;;11.60;66.00;;;;;;6276540;28;20067;-79
2022/01/18 12:36:31;;;;;;;7.85;2.22;;;11.40;65.60;;;;;;6255043;28;20049;-77
2022/01/18 12:40:05;;;;;;;3.55;1.52;;;11.20;66.10;;;;;;6266181;28;20122;-80
2022/01/18 12:46:29;;;;;;;4.97;1.58;;;10.80;65.50;;;;;;6250327;23;20050;-80
2022/01/18 12:49:34;;;;;;;6.25;1.05;;;10.80;66.20;;;;;;6227549;28;20057;-79
2022/01/18 12:52:46;;;;;;;5.18;1.65;;;10.70;66.50;;;;;;6224702;28;20053;-79
2022/01/18 12:55:54;;;;;;;4.78;1.65;;;10.50;66.00;;;;;;6227786;28;20407;-79
2022/01/18 12:59:01;;;;;;;5.65;1.67;;;10.20;66.50;;;;;;6203302;28;20120;-80
2022/01/18 13:02:03;;;;;;;6.38;1.90;;;10.00;66.80;;;;;;6203304;28;20046;-80
2022/01/18 13:05:07;;;;;;;7.38;2.38;;;10.00;67.10;;;;;;6208030;28;20041;-80
2022/01/18 13:08:12;;;;;;;7.22;1.92;;;10.00;67.80;;;;;;6202547;28;20082;-80
2022/01/18 13:11:17;;;;;;;167.27;42.42;;;10.00;68.30;;;;;;6202539;28;20061;-79
2022/01/18 13:14:25;;;;;;;11.05;3.90;;;10.10;68.10;;;;;;6202317;28;20053;-80
2022/01/18 13:27:51;;;;;;;4.55;1.45;;;9.80;67.30;;;;;;6188612;28;20696;-79
2022/01/18 13:30:58;;;;;;;5.60;1.70;;;9.80;67.80;;;;;;6201331;28;20069;-78
2022/01/18 13:34:01;;;;;;;2.10;1.10;;;9.80;68.50;;;;;;6193569;28;20053;-79
2022/01/18 13:37:07;;;;;;;3.35;1.38;;;9.80;68.20;;;;;;6201509;28;20046;-79
2022/01/18 13:40:14;;;;;;;3.40;1.60;;;9.60;68.10;;;;;;6204431;28;20105;-79
2022/01/18 13:43:19;;;;;;;8.40;2.10;;;9.60;68.60;;;;;;6204294;28;20125;-81
2022/01/18 13:46:25;;;;;;;2.80;0.93;;;9.60;69.00;;;;;;6203405;28;20431;-79
2022/01/18 13:49:26;;;;;;;3.10;1.10;;;9.60;68.50;;;;;;6202277;28;20054;-78
2022/01/18 13:52:31;;;;;;;2.83;0.47;;;9.60;67.70;;;;;;6205120;28;20054;-80
2022/01/18 13:55:34;;;;;;;5.10;0.65;;;9.50;67.70;;;;;;6201495;28;20049;-79
2022/01/18 13:58:39;;;;;;;2.72;1.00;;;9.40;67.30;;;;;;6203810;28;20405;-79
2022/01/18 14:01:42;;;;;;;2.53;0.63;;;9.40;67.80;;;;;;6204097;28;20050;-79
2022/01/18 14:04:45;;;;;;;1.60;0.50;;;9.30;67.20;;;;;;6202204;28;20046;-80
2022/01/18 14:07:47;;;;;;;2.05;0.50;;;9.40;67.30;;;;;;6203346;28;20086;-79
2022/01/18 14:11:00;;;;;;;0.73;0.30;;;9.40;67.40;;;;;;6202510;28;20093;-80
2022/01/18 14:14:16;;;;;;;2.50;0.70;;;9.40;66.10;;;;;;6203148;28;20115;-79
2022/01/18 14:17:18;;;;;;;0.85;0.35;;;9.20;66.70;;;;;;6202222;28;20045;-80
2022/01/18 14:20:20;;;;;;;0.88;0.43;;;9.30;66.90;;;;;;6204107;28;20054;-80
2022/01/18 14:23:22;;;;;;;3.55;0.80;;;9.20;67.00;;;;;;6203659;28;20042;-79
2022/01/18 14:26:23;;;;;;;2.08;0.80;;;9.20;67.30;;;;;;6201491;28;20058;-79
2022/01/18 14:29:29;;;;;;;4.85;0.80;;;9.20;67.50;;;;;;6202132;28;20060;-81
2022/01/18 14:32:34;;;;;;;58.28;20.83;;;9.20;67.80;;;;;;6204515;28;20046;-81
2022/01/18 14:35:38;;;;;;;35.53;12.90;;;9.30;67.50;;;;;;6201244;28;20089;-81
2022/01/18 14:38:40;;;;;;;5.82;1.88;;;9.40;68.10;;;;;;6200438;28;20073;-79
2022/01/18 14:41:42;;;;;;;4.80;1.60;;;9.40;67.80;;;;;;6201548;28;20065;-80
2022/01/18 14:45:00;;;;;;;4.53;1.95;;;9.40;68.00;;;;;;6200640;28;20116;-81
2022/01/18 14:48:08;;;;;;;2.88;1.35;;;9.40;68.10;;;;;;6200966;28;20496;-80
2022/01/18 14:51:09;;;;;;;5.27;1.67;;;9.40;69.10;;;;;;6200660;28;20192;-79
2022/01/18 14:54:11;;;;;;;3.83;1.80;;;9.30;68.80;;;;;;6200100;28;20516;-79
2022/01/18 14:57:13;;;;;;;4.07;1.73;;;9.20;69.30;;;;;;6191738;28;20049;-79
2022/01/18 15:00:18;;;;;;;4.70;1.02;;;9.10;70.00;;;;;;6200597;28;20065;-79
2022/01/18 15:03:20;;;;;;;3.38;1.75;;;9.10;70.50;;;;;;6199227;28;20085;-78
2022/01/18 15:06:22;;;;;;;1.80;1.27;;;9.10;70.80;;;;;;6199494;28;20058;-79
2022/01/18 15:09:28;;;;;;;6.35;1.95;;;9.00;71.10;;;;;;6199963;28;20213;-79
2022/01/18 15:12:29;;;;;;;4.75;2.20;;;9.00;71.10;;;;;;6200122;28;20492;-80
2022/01/18 15:15:33;;;;;;;4.82;1.83;;;9.10;71.10;;;;;;6200122;28;20120;-81
2022/01/18 15:18:34;;;;;;;4.82;1.55;;;9.00;71.20;;;;;;6202561;28;20055;-81
2022/01/18 15:21:36;;;;;;;7.32;1.95;;;9.00;71.10;;;;;;6199541;28;20058;-79
2022/01/18 15:24:39;;;;;;;3.45;1.50;;;9.00;71.50;;;;;;6198098;28;20185;-79
2022/01/18 15:27:42;;;;;;;3.42;2.05;;;9.10;71.50;;;;;;6201135;28;20448;-80
2022/01/18 15:30:45;;;;;;;9.05;3.22;;;9.10;71.50;;;;;;6202552;28;20069;-81
2022/01/18 15:33:47;;;;;;;10.48;2.50;;;9.00;71.60;;;;;;6201281;28;20046;-81
2022/01/18 15:36:49;;;;;;;9.25;2.58;;;9.00;71.60;;;;;;6195150;28;20474;-79
2022/01/18 15:39:52;;;;;;;9.00;3.63;;;8.90;72.50;;;;;;6204517;28;20054;-79
2022/01/18 15:42:53;;;;;;;5.75;2.58;;;8.90;71.90;;;;;;6205531;28;20042;-79
2022/01/18 15:45:57;;;;;;;9.93;3.40;;;8.90;72.20;;;;;;6204372;28;20086;-79
2022/01/18 15:48:58;;;;;;;7.72;2.80;;;8.90;72.30;;;;;;6204946;28;20129;-79
2022/01/18 15:52:00;;;;;;;5.72;2.53;;;8.90;72.30;;;;;;6209292;28;20055;-80
2022/01/18 15:55:03;;;;;;;12.65;3.97;;;9.00;72.80;;;;;;6205239;28;20129;-78
2022/01/18 15:58:05;;;;;;;13.27;4.72;;;9.00;72.30;;;;;;6205893;28;20132;-80
2022/01/18 16:01:08;;;;;;;4.20;1.92;;;9.00;72.50;;;;;;6204970;28;20169;-80
2022/01/18 16:04:10;;;;;;;6.75;2.75;;;9.00;72.60;;;;;;6205953;28;20046;-80
2022/01/18 16:07:12;;;;;;;4.93;2.05;;;9.00;73.00;;;;;;6204696;28;20093;-80
2022/01/18 16:10:14;;;;;;;21.33;6.20;;;8.90;73.00;;;;;;6206065;28;20128;-80
2022/01/18 16:13:16;;;;;;;7.78;2.83;;;8.90;73.40;;;;;;6204739;28;20042;-80
2022/01/18 16:16:19;;;;;;;9.70;3.63;;;8.90;73.50;;;;;;6205057;28;20050;-81
2022/01/18 16:19:21;;;;;;;9.35;3.05;;;8.90;73.80;;;;;;6203796;28;20075;-80
2022/01/18 16:22:23;;;;;;;4.40;2.05;;;9.00;73.90;;;;;;6208295;28;20050;-80
2022/01/18 16:25:24;;;;;;;6.10;3.10;;;8.90;73.70;;;;;;6204585;28;20046;-80
2022/01/18 16:28:26;;;;;;;7.15;2.72;;;8.90;73.90;;;;;;6204937;28;20050;-80
2022/01/18 16:31:30;;;;;;;7.03;3.10;;;8.90;74.50;;;;;;6203470;28;20047;-81
2022/01/18 16:34:31;;;;;;;4.15;3.08;;;8.90;74.10;;;;;;6204339;28;20046;-80
2022/01/18 16:37:33;;;;;;;4.53;2.08;;;8.90;74.50;;;;;;6201894;28;20508;-80
2022/01/18 16:40:35;;;;;;;12.95;3.47;;;8.80;74.50;;;;;;6203273;28;20058;-80
2022/01/18 16:43:37;;;;;;;5.68;3.00;;;8.90;74.80;;;;;;6203175;28;20070;-79
2022/01/18 16:46:40;;;;;;;4.85;1.55;;;8.90;74.50;;;;;;6202317;28;20053;-79
2022/01/18 16:49:42;;;;;;;5.03;1.98;;;8.80;73.80;;;;;;6201660;28;20070;-81
2022/01/18 16:52:44;;;;;;;5.28;1.90;;;8.80;73.40;;;;;;6204112;28;20065;-79
2022/01/18 16:55:47;;;;;;;5.85;2.33;;;8.60;73.00;;;;;;6203403;28;20058;-80
2022/01/18 16:58:51;;;;;;;12.27;3.85;;;8.50;72.90;;;;;;6201857;28;20049;-80
2022/01/18 17:01:55;;;;;;;11.05;2.20;;;8.40;73.20;;;;;;6202670;28;20158;-82
2022/01/18 17:04:57;;;;;;;6.60;1.83;;;8.40;72.70;;;;;;6202882;28;20224;-82